• Join FlightAware (Why Join?)
  • Login
  • US Flag 
05:54AM EDT


 

Airport Tracker/Info


-or-


 

Live Flight TrackerFlight Track Log ✈ BJS542 ✈ 05-May-2013 ✈ KCEU - KCHO

Flight Track Log - Related Links

Times and Time Zones

All times are in EDT time to prevent confusion due to time zone crossing. See the BJS542 flight status page for this flight to view local times or setup timezone preferences in your user account.

Time Position Orientation Groundspeed Altitude Reporting Facility
EDT Latitude Longitude Course Direction KTS MPH feet Rate Location/Type
12:03PM 34.7061 -82.7881 29° Northeast 205 236 7,700  Level Atlanta Center
12:04PM 34.7428 -82.6992 63° Northeast 244 281 9,900 2,880 Climbing Atlanta Center
12:05PM 34.7919 -82.6122 55° Northeast 285 328 13,500 3,720 Climbing Atlanta Center
12:06PM 34.8767 -82.5500 31° Northeast 316 364 17,400 2,880 Climbing Atlanta Center
12:08PM 35.0689 -82.3969 33° Northeast 393 452 22,200 2,100 Climbing Atlanta Center
12:09PM 35.1459 -82.4139 29° Northeast  Level FlightAware Approximate
12:09PM 35.1700 -82.3111 35° Northeast 421 484 23,800  Level Atlanta Center
12:10PM 35.2792 -82.2272 32° Northeast 447 514 24,000 1,500 Climbing Atlanta Center
12:11PM 35.3844 -82.1433 33° Northeast 460 529 26,800 1,500 Climbing Atlanta Center
12:12PM 35.4894 -82.0569 34° Northeast 455 524 27,000 60 Climbing Atlanta Center
12:13PM 35.5964 -81.9675 34° Northeast 455 524 27,000  Level Atlanta Center
12:14PM 35.7056 -81.8778 34° Northeast 461 531 27,000  Level Atlanta Center
12:15PM 35.8125 -81.7906 33° Northeast 461 531 27,000  Level Atlanta Center
12:16PM 35.9089 -81.7108 34° Northeast 461 531 27,000  Level Atlanta Center
12:17PM 36.0156 -81.6206 34° Northeast 461 531 27,000  Level Atlanta Center
12:18PM 36.1225 -81.5325 34° Northeast 461 531 27,000  Level Atlanta Center
12:19PM 36.2269 -81.4442 34° Northeast 461 531 27,000  Level Atlanta Center
12:20PM 36.3436 -81.3478 34° Northeast 461 531 27,000 -300 Level Atlanta Center
12:21PM 36.4286 -81.2314 48° Northeast 455 524 26,500 -1,020 Descending Atlanta Center
12:22PM 36.5072 -81.1072 52° Northeast 454 522 25,000 -780 Descending Atlanta Center
12:23PM 36.5919 -80.9956 47° Northeast 449 517 25,000  Level Atlanta Center
12:24PM 36.6686 -80.8892 48° Northeast 413 475 25,000  Level Atlanta Center
12:26PM 36.7811 -80.7086 52° Northeast 436 502 25,000  Level Washington Center
12:27PM 36.8572 -80.5864 52° Northeast 436 502 25,000  Level Washington Center
12:28PM 36.9289 -80.4664 53° Northeast 436 502 25,000 -300 Level Washington Center
12:29PM 37.0114 -80.3364 52° Northeast 436 502 24,500 -960 Descending Washington Center
12:30PM 37.0847 -80.2183 52° Northeast 436 502 23,200 -1,200 Descending Washington Center
12:31PM 37.1561 -80.1028 52° Northeast 431 496 22,100 -1,080 Descending Washington Center
12:32PM 37.2247 -79.9922 52° Northeast 419 482 21,100 -1,200 Descending Washington Center
12:33PM 37.2850 -79.8886 54° Northeast 414 476 19,700 -1,500 Descending Washington Center
12:34PM 37.3536 -79.7775 52° Northeast 402 463 18,200 -1,440 Descending Washington Center
12:35PM 37.4197 -79.6686 53° Northeast 397 457 16,900 -1,500 Descending Washington Center
12:36PM 37.4928 -79.5469 53° Northeast 402 463 15,200 -1,560 Descending Washington Center
12:37PM 37.5481 -79.4528 53° Northeast 377 434 13,800 -1,500 Descending Washington Center
12:38PM 37.6142 -79.3433 53° Northeast 366 421 12,200 -1,500 Descending Washington Center
12:39PM 37.6689 -79.2544 52° Northeast 353 406 10,900 -660 Descending Washington Center
12:40PM 37.7281 -79.1575 52° Northeast 353 406 10,900 -480 Level Washington Center
12:41PM 37.7939 -79.0475 53° Northeast 353 406 10,000 -540 Descending Washington Center
12:42PM 37.8508 -78.9528 53° Northeast 353 406 9,900 -360 Descending Washington Center
12:43PM 37.9036 -78.8578 55° Northeast 342 394 9,400 -840 Descending Washington Center
12:44PM 37.9164 -78.7689 80° East 284 327 8,200 -1,200 Descending Washington Center
12:45PM 37.8975 -78.6969 108° East 226 260 7,100 -1,020 Descending Washington Center
12:46PM 37.8842 -78.6411 107° East 204 235 6,200 -1,320 Descending Washington Center
12:47PM 37.9025 -78.5789 70° East 187 215 4,500 -1,440 Descending Washington Center
12:48PM 37.9472 -78.5411 34° Northeast 178 205 3,400 -600 Descending Washington Center
12:49PM 37.9936 -78.5219 18° North 166 191 3,300 -360 Descending Washington Center
12:50PM 38.0400 -78.4972 23° Northeast 172 198 2,700 -600 Descending Washington Center
12:53PM 38.1333 -78.4500 50° Northeast  Level FlightAware Approximate
01:00PM 38.1386 -78.4529 50° Northeast  Level Estimated
01:01PM 38.1333 -78.4500 50° Northeast  Level FlightAware Approximate
01:02PM 38.1386 -78.4529 50° Northeast  Level Estimated
01:03PM 38.1333 -78.4500 50° Northeast  Level FlightAware Approximate
01:04PM 38.1386 -78.4529 50° Northeast  Level Estimated
01:05PM 38.1333 -78.4500 50° Northeast  Level FlightAware Approximate
01:06PM 38.1386 -78.4529 50° Northeast  Level Estimated
01:07PM 38.1333 -78.4500 50° Northeast  Level FlightAware Approximate
01:08PM 38.1386 -78.4529 50° Northeast  Level Estimated